Time;durP1;ratioP1;P1;durP2;ratioP2;P2;SDS_P1;SDS_P2;PMS_P1;PMS_P2;Temp;Humidity;BMP_temperature;BMP_pressure;BME280_temperature;BME280_humidity;BME280_pressure;Samples;Min_cycle;Max_cycle;Signal;HPM_P1;HPM_P2
2022/01/05 00:00:44;;;;;;;3.40;2.60;;;4.80;99.90;;;;;;5031856;28;20492;-78
2022/01/05 00:03:09;;;;;;;4.80;2.80;;;4.80;99.90;;;;;;5030833;28;20040;-78
2022/01/05 00:05:35;;;;;;;2.93;1.87;;;4.80;99.90;;;;;;5031693;28;20036;-78
2022/01/05 00:08:00;;;;;;;3.23;2.80;;;4.70;99.90;;;;;;5031327;28;20041;-78
2022/01/05 00:10:26;;;;;;;5.73;3.90;;;4.70;99.90;;;;;;5031267;28;20037;-78
2022/01/05 00:12:53;;;;;;;3.00;2.50;;;4.70;99.90;;;;;;5029713;28;20060;-78
2022/01/05 00:15:19;;;;;;;2.60;2.30;;;4.60;99.90;;;;;;5031618;28;20462;-79
2022/01/05 00:17:44;;;;;;;2.87;2.20;;;4.60;99.90;;;;;;5031202;28;20036;-79
2022/01/05 00:20:11;;;;;;;2.70;2.40;;;4.60;99.90;;;;;;5031412;28;20033;-79
2022/01/05 00:22:36;;;;;;;3.47;2.47;;;4.60;99.90;;;;;;5030850;28;20026;-79
2022/01/05 00:25:02;;;;;;;2.50;2.20;;;4.60;99.90;;;;;;5030170;28;20104;-79
2022/01/05 00:27:28;;;;;;;1.93;1.73;;;4.60;99.90;;;;;;5030350;28;20073;-78
2022/01/05 00:29:53;;;;;;;1.53;1.30;;;4.60;99.90;;;;;;5028536;28;20596;-79
2022/01/05 00:32:19;;;;;;;1.77;1.30;;;4.60;99.90;;;;;;5029261;28;20108;-79
2022/01/05 00:34:44;;;;;;;1.50;1.20;;;4.60;99.90;;;;;;5030145;28;20029;-79
2022/01/05 00:37:10;;;;;;;1.63;1.30;;;4.60;99.90;;;;;;5030232;28;20037;-79
2022/01/05 00:39:36;;;;;;;1.60;1.10;;;4.50;99.90;;;;;;5029732;28;20128;-80
2022/01/05 00:42:02;;;;;;;1.30;1.10;;;4.40;99.90;;;;;;5027823;28;20124;-79
2022/01/05 00:44:28;;;;;;;1.10;1.00;;;4.40;99.90;;;;;;5017096;28;20491;-80
2022/01/05 00:46:53;;;;;;;1.30;0.90;;;4.40;99.90;;;;;;5010316;28;20073;-79
2022/01/05 00:49:19;;;;;;;0.70;0.70;;;4.30;99.90;;;;;;5010221;28;20041;-77
2022/01/05 00:51:44;;;;;;;0.80;0.80;;;4.20;99.90;;;;;;5010195;28;20133;-77
2022/01/05 00:54:10;;;;;;;0.67;0.67;;;4.10;99.90;;;;;;5009949;28;20049;-77
2022/01/05 00:56:35;;;;;;;1.27;0.70;;;4.10;99.90;;;;;;5016897;28;20105;-77
2022/01/05 00:59:01;;;;;;;1.23;0.70;;;4.00;99.90;;;;;;5029709;28;20040;-77
2022/01/05 01:01:26;;;;;;;0.63;0.63;;;3.90;99.90;;;;;;5029754;28;20436;-77
2022/01/05 01:03:52;;;;;;;0.60;0.60;;;3.90;99.90;;;;;;5029326;28;20037;-77
2022/01/05 01:06:18;;;;;;;0.70;0.70;;;3.80;99.90;;;;;;5029518;28;20079;-77
2022/01/05 01:08:44;;;;;;;0.90;0.70;;;3.70;99.90;;;;;;5028213;28;20041;-78
2022/01/05 01:11:09;;;;;;;0.70;0.70;;;3.60;99.90;;;;;;5028374;28;20033;-78
2022/01/05 01:13:35;;;;;;;0.80;0.80;;;3.60;99.90;;;;;;5029250;28;20470;-79
2022/01/05 01:16:01;;;;;;;0.83;0.83;;;3.50;99.90;;;;;;5028593;28;20053;-79
2022/01/05 01:18:26;;;;;;;1.00;0.90;;;3.40;99.90;;;;;;5029499;28;20786;-78
2022/01/05 01:20:52;;;;;;;1.00;0.90;;;3.40;99.90;;;;;;5028334;28;20021;-79
2022/01/05 01:23:21;;;;;;;1.10;1.00;;;3.40;99.90;;;;;;4992273;28;1071631;-79
2022/01/05 01:25:48;;;;;;;1.10;1.00;;;3.30;99.90;;;;;;5030226;28;20482;-78
2022/01/05 01:28:13;;;;;;;1.03;0.80;;;3.30;99.90;;;;;;5030118;28;20462;-78
2022/01/05 01:30:39;;;;;;;0.90;0.90;;;3.30;99.90;;;;;;5028919;28;20044;-78
2022/01/05 01:33:05;;;;;;;0.80;0.80;;;3.30;99.90;;;;;;5029565;28;20136;-79
2022/01/05 01:35:30;;;;;;;1.07;0.97;;;3.30;99.90;;;;;;5030006;28;20046;-79
2022/01/05 01:37:56;;;;;;;0.90;0.90;;;3.30;99.90;;;;;;5029795;28;20026;-79
2022/01/05 01:40:22;;;;;;;1.70;1.10;;;3.20;99.90;;;;;;5030285;28;20043;-79
2022/01/05 01:42:48;;;;;;;1.30;1.20;;;3.20;99.90;;;;;;5023767;28;20040;-79
2022/01/05 01:45:14;;;;;;;0.80;0.80;;;3.20;99.90;;;;;;5009599;28;20038;-79
2022/01/05 01:47:41;;;;;;;0.90;0.90;;;3.20;99.90;;;;;;5010189;28;20041;-79
2022/01/05 01:50:07;;;;;;;1.03;0.90;;;3.10;99.90;;;;;;5027592;28;20029;-79
2022/01/05 01:52:33;;;;;;;0.80;0.80;;;3.10;99.90;;;;;;5033324;28;20021;-79
2022/01/05 01:54:59;;;;;;;0.90;0.90;;;3.10;99.90;;;;;;5033818;28;20470;-79
2022/01/05 01:57:27;;;;;;;1.03;0.80;;;3.10;99.90;;;;;;5034042;28;20025;-79
2022/01/05 01:59:52;;;;;;;1.00;0.83;;;3.10;99.90;;;;;;5030729;28;20064;-79
2022/01/05 02:02:18;;;;;;;0.90;0.90;;;3.10;99.90;;;;;;5014239;28;20041;-80
2022/01/05 02:04:45;;;;;;;1.13;1.00;;;3.10;99.90;;;;;;5013948;28;20129;-79
2022/01/05 02:07:10;;;;;;;3.87;1.63;;;3.10;99.90;;;;;;5019427;28;20033;-79
2022/01/05 02:09:40;;;;;;;1.23;1.13;;;3.10;99.90;;;;;;5033550;28;20140;-78
2022/01/05 02:12:07;;;;;;;1.20;1.10;;;3.10;99.90;;;;;;5033345;28;20044;-79
2022/01/05 02:14:33;;;;;;;1.20;1.10;;;3.10;99.90;;;;;;5032081;28;20036;-79
2022/01/05 02:17:03;;;;;;;1.40;1.20;;;3.00;99.90;;;;;;5031942;28;20025;-78
2022/01/05 02:19:28;;;;;;;1.20;1.10;;;3.10;99.90;;;;;;5033502;28;20031;-78
2022/01/05 02:21:54;;;;;;;3.30;1.20;;;3.10;99.90;;;;;;5033119;28;20033;-79
2022/01/05 02:24:20;;;;;;;1.40;1.20;;;3.10;99.90;;;;;;5031902;28;20050;-79
2022/01/05 02:26:45;;;;;;;1.30;1.20;;;3.10;99.90;;;;;;5033431;28;20095;-78
2022/01/05 02:29:11;;;;;;;1.50;1.37;;;3.20;99.90;;;;;;5031986;28;20033;-78
2022/01/05 02:31:37;;;;;;;1.10;1.00;;;3.20;99.90;;;;;;5033549;28;20039;-79
2022/01/05 02:34:03;;;;;;;1.97;1.27;;;3.20;99.90;;;;;;5033066;28;20044;-78
2022/01/05 02:36:29;;;;;;;1.60;1.30;;;3.20;99.90;;;;;;5033106;28;20087;-79
2022/01/05 02:38:55;;;;;;;1.73;1.20;;;3.10;99.90;;;;;;5032929;28;20034;-79
2022/01/05 02:41:21;;;;;;;1.53;1.20;;;3.10;99.90;;;;;;5031033;28;20041;-79
2022/01/05 02:43:47;;;;;;;1.57;1.40;;;3.10;99.90;;;;;;5021847;28;20053;-79
2022/01/05 02:46:15;;;;;;;2.60;1.30;;;3.20;99.90;;;;;;5013540;28;20120;-79
2022/01/05 02:48:41;;;;;;;1.37;1.20;;;3.20;99.90;;;;;;5013132;28;20037;-79
2022/01/05 02:51:07;;;;;;;1.47;1.33;;;3.20;99.90;;;;;;5027805;28;20036;-78
2022/01/05 02:53:34;;;;;;;1.27;1.17;;;3.30;99.90;;;;;;5031274;28;20116;-78
2022/01/05 02:56:00;;;;;;;1.30;1.20;;;3.30;99.90;;;;;;5033098;28;20040;-78
2022/01/05 02:58:26;;;;;;;1.70;1.30;;;3.30;99.90;;;;;;5032884;28;20030;-78
2022/01/05 03:00:51;;;;;;;1.40;1.20;;;3.30;99.90;;;;;;5033025;28;20029;-78
2022/01/05 03:03:17;;;;;;;1.20;1.10;;;3.30;99.90;;;;;;5031703;28;20032;-78
2022/01/05 03:05:43;;;;;;;1.30;1.03;;;3.40;99.90;;;;;;5031420;28;20041;-78
2022/01/05 03:08:08;;;;;;;1.73;1.20;;;3.40;99.90;;;;;;5032439;28;20072;-78
2022/01/05 03:10:34;;;;;;;1.73;1.40;;;3.40;99.90;;;;;;5032732;28;20038;-78
2022/01/05 03:13:00;;;;;;;1.43;1.20;;;3.40;99.90;;;;;;5032352;28;20084;-78
2022/01/05 03:15:25;;;;;;;1.80;1.20;;;3.40;99.90;;;;;;5032765;28;20025;-78
2022/01/05 03:17:51;;;;;;;1.70;1.30;;;3.40;99.90;;;;;;5030875;28;20029;-78
2022/01/05 03:20:20;;;;;;;1.10;1.00;;;3.40;99.90;;;;;;5032373;28;20125;-78
2022/01/05 03:22:47;;;;;;;1.20;1.00;;;3.50;99.90;;;;;;5031899;28;20029;-77
2022/01/05 03:25:16;;;;;;;1.00;1.00;;;3.40;99.90;;;;;;5032569;28;20359;-78
2022/01/05 03:27:49;;;;;;;1.60;1.00;;;3.40;99.90;;;;;;5030788;28;20033;-78
2022/01/05 03:30:18;;;;;;;1.10;1.00;;;3.50;99.90;;;;;;5032077;28;20041;-78
2022/01/05 03:35:26;;;;;;;1.10;0.90;;;3.50;99.90;;;;;;5032316;28;20359;-78
2022/01/05 03:37:52;;;;;;;1.20;1.00;;;3.60;99.90;;;;;;5032277;28;20022;-78
2022/01/05 03:40:17;;;;;;;1.40;1.00;;;3.60;99.90;;;;;;5032246;28;20072;-77
2022/01/05 03:42:43;;;;;;;1.20;1.00;;;3.60;99.90;;;;;;5025769;28;20359;-77
2022/01/05 03:45:09;;;;;;;1.17;1.00;;;3.60;99.90;;;;;;5012370;28;20065;-77
2022/01/05 03:47:35;;;;;;;2.03;0.90;;;3.60;99.90;;;;;;5017057;28;20021;-77
2022/01/05 03:50:00;;;;;;;1.53;0.90;;;3.50;99.90;;;;;;5031962;28;20029;-77
2022/01/05 03:52:26;;;;;;;1.33;1.00;;;3.50;99.90;;;;;;5031627;28;20106;-78
2022/01/05 03:54:51;;;;;;;3.20;1.33;;;3.40;99.90;;;;;;5031736;28;20085;-79
2022/01/05 03:57:17;;;;;;;1.30;0.90;;;3.40;99.90;;;;;;5031570;28;20112;-79
2022/01/05 03:59:43;;;;;;;1.30;0.80;;;3.40;99.90;;;;;;5031246;28;20056;-79
2022/01/05 04:02:08;;;;;;;1.13;0.63;;;3.40;99.90;;;;;;5031684;28;20056;-78
2022/01/05 04:04:34;;;;;;;0.80;0.70;;;3.40;99.90;;;;;;5031323;28;20379;-78
2022/01/05 04:06:59;;;;;;;1.43;0.80;;;3.40;99.90;;;;;;5030177;28;20033;-78
2022/01/05 04:09:25;;;;;;;0.77;0.77;;;3.40;99.90;;;;;;5031471;28;20025;-78
2022/01/05 04:11:51;;;;;;;1.83;0.70;;;3.40;99.90;;;;;;5031344;28;20528;-78
2022/01/05 04:14:16;;;;;;;1.13;0.67;;;3.40;99.90;;;;;;5030385;28;20032;-78
2022/01/05 04:16:42;;;;;;;0.93;0.60;;;3.30;99.90;;;;;;5031367;28;20319;-78
2022/01/05 04:19:07;;;;;;;0.80;0.70;;;3.30;99.90;;;;;;5031197;28;20025;-78
2022/01/05 04:21:33;;;;;;;0.97;0.80;;;3.30;99.90;;;;;;5031414;28;20147;-78
2022/01/05 04:23:59;;;;;;;1.00;0.87;;;3.20;99.90;;;;;;5030712;28;20128;-78
2022/01/05 04:26:24;;;;;;;0.60;0.60;;;3.20;99.90;;;;;;5031591;28;20030;-78
2022/01/05 04:28:50;;;;;;;1.90;0.70;;;3.20;99.90;;;;;;5031043;28;20029;-78
2022/01/05 04:31:15;;;;;;;0.70;0.70;;;3.20;99.90;;;;;;5031197;28;20124;-78
2022/01/05 04:33:41;;;;;;;0.73;0.70;;;3.20;99.90;;;;;;5030599;28;20033;-78
2022/01/05 04:36:07;;;;;;;0.80;0.80;;;3.20;99.90;;;;;;5031469;28;20490;-78
2022/01/05 04:38:33;;;;;;;0.73;0.70;;;3.10;99.90;;;;;;5030641;28;20032;-77
2022/01/05 04:40:59;;;;;;;0.70;0.70;;;3.10;99.90;;;;;;5029622;28;20029;-77
2022/01/05 04:43:24;;;;;;;1.37;0.80;;;3.00;99.90;;;;;;5027090;28;20025;-78
2022/01/05 04:45:50;;;;;;;0.70;0.70;;;3.00;99.90;;;;;;5031857;28;20087;-78
2022/01/05 04:48:16;;;;;;;0.80;0.60;;;3.00;99.90;;;;;;5030843;28;20018;-77
2022/01/05 04:50:41;;;;;;;0.57;0.57;;;3.00;99.90;;;;;;5031685;28;20105;-77
2022/01/05 04:53:09;;;;;;;0.70;0.70;;;3.00;99.90;;;;;;5029819;28;20116;-77
2022/01/05 04:55:35;;;;;;;0.70;0.70;;;3.10;99.90;;;;;;5031305;28;20100;-77
2022/01/05 04:58:00;;;;;;;0.80;0.80;;;3.00;99.90;;;;;;5031101;28;20113;-78
2022/01/05 05:00:26;;;;;;;0.67;0.67;;;3.10;99.90;;;;;;5031104;28;20033;-78
2022/01/05 05:02:51;;;;;;;1.00;0.90;;;3.00;99.90;;;;;;5030556;28;20018;-78
2022/01/05 05:05:17;;;;;;;0.90;0.70;;;3.00;99.90;;;;;;5030758;28;20028;-78
2022/01/05 05:07:42;;;;;;;1.00;0.80;;;2.90;99.90;;;;;;5030720;28;20087;-78
2022/01/05 05:10:08;;;;;;;0.60;0.60;;;3.00;99.90;;;;;;5031266;28;20030;-78
2022/01/05 05:12:34;;;;;;;1.80;0.90;;;3.00;99.90;;;;;;5030650;28;20021;-78
2022/01/05 05:14:59;;;;;;;2.00;0.77;;;3.00;99.90;;;;;;5030217;28;20021;-78
2022/01/05 05:17:25;;;;;;;0.60;0.60;;;3.00;99.90;;;;;;5030307;28;20021;-78
2022/01/05 05:19:50;;;;;;;0.60;0.60;;;3.00;99.90;;;;;;5031008;28;20026;-78
2022/01/05 05:22:16;;;;;;;0.50;0.50;;;3.10;99.90;;;;;;5033203;28;20489;-78
2022/01/05 05:24:41;;;;;;;0.77;0.77;;;3.10;99.90;;;;;;5031910;28;20045;-78
2022/01/05 05:27:07;;;;;;;1.10;0.60;;;3.20;99.90;;;;;;5033316;28;20026;-78
2022/01/05 05:29:33;;;;;;;1.00;0.90;;;3.20;99.90;;;;;;5033694;28;20028;-78
2022/01/05 05:31:58;;;;;;;1.13;0.70;;;3.20;99.90;;;;;;5033385;28;20033;-78
2022/01/05 05:34:25;;;;;;;0.60;0.60;;;3.30;99.90;;;;;;5033159;28;20060;-78
2022/01/05 05:36:50;;;;;;;0.60;0.60;;;3.20;99.90;;;;;;5033460;28;20038;-78
2022/01/05 05:39:16;;;;;;;0.57;0.57;;;3.20;99.90;;;;;;5033375;28;20048;-78
2022/01/05 05:41:41;;;;;;;0.63;0.63;;;3.30;99.90;;;;;;5033673;28;20026;-78
2022/01/05 05:44:07;;;;;;;0.70;0.70;;;3.30;99.90;;;;;;5033255;28;20034;-78
2022/01/05 05:46:34;;;;;;;0.70;0.70;;;3.30;99.90;;;;;;5033210;28;20036;-78
2022/01/05 05:49:00;;;;;;;0.77;0.77;;;3.30;99.90;;;;;;5030447;28;20029;-78
2022/01/05 05:51:26;;;;;;;0.60;0.60;;;3.20;99.90;;;;;;5028897;28;20037;-77
2022/01/05 05:53:51;;;;;;;0.70;0.70;;;3.30;99.90;;;;;;5028970;28;20099;-78
2022/01/05 05:56:17;;;;;;;0.80;0.70;;;3.30;99.90;;;;;;5029043;28;20462;-77
2022/01/05 05:58:42;;;;;;;0.90;0.90;;;3.40;99.90;;;;;;5028654;28;20084;-77
2022/01/05 06:01:08;;;;;;;0.67;0.67;;;3.40;99.90;;;;;;5029465;28;20470;-77
2022/01/05 06:03:33;;;;;;;0.60;0.60;;;3.40;99.90;;;;;;5029352;28;20033;-77
2022/01/05 06:05:59;;;;;;;0.50;0.50;;;3.50;99.90;;;;;;5029427;28;20034;-77
2022/01/05 06:08:25;;;;;;;0.57;0.57;;;3.50;99.90;;;;;;5029324;28;20083;-77
2022/01/05 06:10:50;;;;;;;0.60;0.60;;;3.50;99.90;;;;;;5030387;28;20037;-77
2022/01/05 06:13:16;;;;;;;0.60;0.60;;;3.50;99.90;;;;;;5029372;28;20025;-77
2022/01/05 06:15:41;;;;;;;0.50;0.50;;;3.40;99.90;;;;;;5030404;28;20026;-77
2022/01/05 06:18:10;;;;;;;0.57;0.50;;;3.40;99.90;;;;;;5028090;28;20041;-80
2022/01/05 06:20:36;;;;;;;0.53;0.53;;;3.40;99.90;;;;;;5030258;28;20026;-78
2022/01/05 06:23:01;;;;;;;0.90;0.60;;;3.40;99.90;;;;;;5029811;28;20168;-81
2022/01/05 06:25:27;;;;;;;0.60;0.60;;;3.50;99.90;;;;;;5030112;28;20045;-81
2022/01/05 06:27:53;;;;;;;0.77;0.77;;;3.50;99.90;;;;;;5029760;28;20040;-79
2022/01/05 06:30:18;;;;;;;0.80;0.80;;;3.50;99.90;;;;;;5047729;28;20024;-78
2022/01/05 06:32:46;;;;;;;0.70;0.70;;;3.60;99.90;;;;;;5052830;28;20110;-79
2022/01/05 06:35:13;;;;;;;0.50;0.50;;;3.50;99.90;;;;;;5052685;28;20380;-80
2022/01/05 06:37:40;;;;;;;0.50;0.50;;;3.70;99.90;;;;;;5054580;28;20466;-78
2022/01/05 06:40:06;;;;;;;0.50;0.50;;;3.60;99.90;;;;;;5056621;28;20048;-78
2022/01/05 06:42:31;;;;;;;0.50;0.50;;;3.60;99.90;;;;;;5054975;28;20139;-79
2022/01/05 06:44:57;;;;;;;0.60;0.60;;;3.60;99.90;;;;;;5056014;28;20097;-79
2022/01/05 06:47:23;;;;;;;0.60;0.60;;;3.60;99.90;;;;;;5036296;28;20124;-79
2022/01/05 06:49:48;;;;;;;1.30;0.80;;;3.50;99.90;;;;;;5036042;28;20041;-80
2022/01/05 06:52:14;;;;;;;0.60;0.60;;;3.60;99.90;;;;;;5036165;28;20021;-79
2022/01/05 06:54:40;;;;;;;1.43;0.80;;;3.60;99.90;;;;;;5035970;28;20029;-73
2022/01/05 06:57:07;;;;;;;0.70;0.70;;;3.60;99.90;;;;;;5036397;28;20044;-73
2022/01/05 06:59:33;;;;;;;0.73;0.73;;;3.60;99.90;;;;;;5036352;28;20041;-72
2022/01/05 07:01:58;;;;;;;0.63;0.63;;;3.60;99.90;;;;;;5035695;28;20048;-73
2022/01/05 07:04:24;;;;;;;0.50;0.50;;;3.70;99.90;;;;;;5036315;28;20037;-73
2022/01/05 07:06:50;;;;;;;0.60;0.60;;;3.70;99.90;;;;;;5036235;28;20029;-74
2022/01/05 07:09:15;;;;;;;0.50;0.50;;;3.70;99.90;;;;;;5035641;28;20075;-74
2022/01/05 07:11:41;;;;;;;0.70;0.70;;;3.60;99.90;;;;;;5035658;28;20480;-74
2022/01/05 07:14:07;;;;;;;0.60;0.60;;;3.60;99.90;;;;;;5034826;28;20167;-80
2022/01/05 07:16:32;;;;;;;0.70;0.60;;;3.60;99.90;;;;;;5033353;28;20047;-78
2022/01/05 07:18:58;;;;;;;1.17;0.80;;;3.70;99.90;;;;;;5033950;28;20515;-81
2022/01/05 07:21:23;;;;;;;0.90;0.60;;;3.70;99.90;;;;;;5032806;28;20919;-80
2022/01/05 07:23:49;;;;;;;0.70;0.60;;;3.70;99.90;;;;;;5032047;28;20144;-81
2022/01/05 07:26:15;;;;;;;0.60;0.60;;;3.70;99.90;;;;;;5032507;28;20033;-81
2022/01/05 07:28:40;;;;;;;0.67;0.67;;;3.70;99.90;;;;;;5021538;28;20052;-81
2022/01/05 07:31:06;;;;;;;0.63;0.60;;;3.70;99.90;;;;;;5023719;28;20041;-81
2022/01/05 07:33:31;;;;;;;0.87;0.70;;;3.70;99.90;;;;;;5021524;28;20083;-80
2022/01/05 07:35:57;;;;;;;1.77;1.17;;;3.70;99.90;;;;;;5030527;28;20030;-81
2022/01/05 07:38:23;;;;;;;1.50;0.70;;;3.60;99.90;;;;;;5029199;28;20128;-81
2022/01/05 07:40:49;;;;;;;0.87;0.87;;;3.60;99.90;;;;;;5026450;28;20390;-81
2022/01/05 07:43:14;;;;;;;0.70;0.70;;;3.60;99.90;;;;;;5029515;28;20034;-82
2022/01/05 07:45:40;;;;;;;0.70;0.70;;;3.60;99.90;;;;;;5025786;28;20044;-81
2022/01/05 07:48:06;;;;;;;0.70;0.70;;;3.70;99.90;;;;;;5024341;28;20080;-81
2022/01/05 07:50:33;;;;;;;1.03;0.80;;;3.70;99.90;;;;;;5023621;28;20033;-81
2022/01/05 07:53:01;;;;;;;0.60;0.60;;;3.70;99.90;;;;;;5019433;28;20497;-81
2022/01/05 07:55:28;;;;;;;0.60;0.60;;;3.60;99.90;;;;;;5022005;28;20062;-81
2022/01/05 07:57:53;;;;;;;0.70;0.70;;;3.60;99.90;;;;;;5023071;28;20129;-80
2022/01/05 08:00:19;;;;;;;0.70;0.70;;;3.60;99.90;;;;;;5034632;28;20052;-76
2022/01/05 08:02:44;;;;;;;0.60;0.60;;;3.70;99.90;;;;;;5035361;28;20025;-76
2022/01/05 08:05:10;;;;;;;1.23;0.67;;;3.70;99.90;;;;;;5029433;28;20485;-76
2022/01/05 08:07:36;;;;;;;0.73;0.70;;;3.70;99.90;;;;;;5015768;28;20040;-76
2022/01/05 08:10:03;;;;;;;0.70;0.70;;;3.90;99.90;;;;;;5033332;28;20035;-76
2022/01/05 08:12:28;;;;;;;1.67;0.70;;;3.80;99.90;;;;;;5034924;28;20021;-76
2022/01/05 08:14:54;;;;;;;0.60;0.60;;;3.90;99.90;;;;;;5034422;28;20488;-77
2022/01/05 08:17:20;;;;;;;1.10;0.70;;;3.90;99.90;;;;;;5032050;28;20022;-83
2022/01/05 08:19:45;;;;;;;0.70;0.70;;;4.00;99.90;;;;;;5029847;28;20052;-82
2022/01/05 08:22:11;;;;;;;0.70;0.70;;;4.10;99.90;;;;;;5025310;28;20024;-82
2022/01/05 08:24:36;;;;;;;0.50;0.50;;;4.10;99.90;;;;;;5033299;28;20057;-82
2022/01/05 08:27:02;;;;;;;0.70;0.70;;;4.20;99.90;;;;;;5032975;28;20037;-83
2022/01/05 08:29:28;;;;;;;0.50;0.50;;;4.20;99.90;;;;;;5021124;28;20026;-83
2022/01/05 08:31:53;;;;;;;0.57;0.57;;;4.10;99.90;;;;;;5034076;28;20125;-77
2022/01/05 08:34:19;;;;;;;0.97;0.70;;;4.10;99.90;;;;;;5034004;28;20033;-77
2022/01/05 08:36:44;;;;;;;0.80;0.80;;;4.10;99.90;;;;;;5034544;28;20029;-78
2022/01/05 08:39:10;;;;;;;0.83;0.73;;;4.00;99.90;;;;;;5033999;28;20029;-77
2022/01/05 08:41:36;;;;;;;1.37;0.90;;;4.00;99.90;;;;;;5034117;28;20048;-77
2022/01/05 08:44:02;;;;;;;1.00;0.80;;;4.00;99.90;;;;;;5017056;28;20041;-77
2022/01/05 08:46:27;;;;;;;1.70;1.10;;;4.00;99.90;;;;;;5014630;28;20030;-75
2022/01/05 08:48:53;;;;;;;1.27;1.03;;;4.00;99.90;;;;;;5025595;28;20030;-76
2022/01/05 08:51:18;;;;;;;1.70;0.90;;;4.00;99.90;;;;;;5024165;28;20036;-76
2022/01/05 08:53:44;;;;;;;1.20;1.03;;;4.10;99.90;;;;;;5026162;28;20061;-76
2022/01/05 08:56:10;;;;;;;0.87;0.83;;;4.10;99.90;;;;;;5019815;28;20647;-76
2022/01/05 08:58:36;;;;;;;1.90;0.97;;;4.10;99.90;;;;;;5032983;28;20505;-76
2022/01/05 09:01:02;;;;;;;0.93;0.83;;;4.10;99.90;;;;;;5033021;28;20100;-76
2022/01/05 09:03:27;;;;;;;0.80;0.80;;;4.10;99.90;;;;;;5033609;28;20455;-76
2022/01/05 09:05:53;;;;;;;1.10;0.90;;;4.00;99.90;;;;;;5033424;28;20033;-76
2022/01/05 09:08:18;;;;;;;1.10;0.90;;;4.00;99.90;;;;;;5021013;28;20034;-76
2022/01/05 09:10:44;;;;;;;0.97;0.90;;;3.90;99.90;;;;;;5023159;28;20475;-76
2022/01/05 09:13:10;;;;;;;1.23;1.13;;;3.90;99.90;;;;;;5012946;28;20025;-76
2022/01/05 09:15:37;;;;;;;1.10;1.00;;;3.80;99.90;;;;;;5013537;28;20018;-77
2022/01/05 09:18:03;;;;;;;1.30;1.20;;;3.70;99.90;;;;;;5029708;28;20122;-77
2022/01/05 09:20:29;;;;;;;1.47;1.10;;;3.70;99.90;;;;;;5033386;28;20053;-77
2022/01/05 09:22:56;;;;;;;1.30;1.20;;;3.70;99.90;;;;;;5032848;28;20041;-77
2022/01/05 09:25:23;;;;;;;1.40;1.30;;;3.70;99.90;;;;;;5033400;28;20184;-77
2022/01/05 09:27:49;;;;;;;2.40;1.50;;;3.70;99.90;;;;;;5032791;28;20466;-77
2022/01/05 09:30:16;;;;;;;2.27;1.20;;;3.60;99.90;;;;;;5030890;28;20512;-78
2022/01/05 09:32:41;;;;;;;1.53;1.20;;;3.60;99.90;;;;;;5031415;28;20022;-77
2022/01/05 09:35:10;;;;;;;1.90;1.40;;;3.60;99.90;;;;;;5016833;28;20387;-77
2022/01/05 09:37:48;;;;;;;1.40;1.30;;;3.60;99.90;;;;;;5013604;28;20018;-77
2022/01/05 09:42:58;;;;;;;2.33;1.90;;;3.50;99.90;;;;;;5033471;28;20037;-77
2022/01/05 09:45:28;;;;;;;2.00;1.73;;;3.40;99.90;;;;;;5017952;28;20025;-77
2022/01/05 09:48:05;;;;;;;2.63;1.73;;;3.40;99.90;;;;;;5017713;28;20462;-77
2022/01/05 09:50:31;;;;;;;3.07;2.03;;;3.40;99.90;;;;;;5031293;28;20037;-77
2022/01/05 09:52:57;;;;;;;2.60;2.03;;;3.40;99.90;;;;;;5022738;28;20028;-78
2022/01/05 09:55:23;;;;;;;2.10;1.90;;;3.40;99.90;;;;;;5019068;28;20113;-77
2022/01/05 09:57:49;;;;;;;2.03;1.80;;;3.40;99.90;;;;;;5017550;28;20096;-77
2022/01/05 10:00:16;;;;;;;3.03;2.00;;;3.40;99.90;;;;;;5022031;28;20534;-77
2022/01/05 10:02:43;;;;;;;2.40;1.90;;;3.40;99.90;;;;;;5032959;28;20196;-77
2022/01/05 10:05:10;;;;;;;4.47;2.13;;;3.50;99.90;;;;;;5032893;28;20030;-77
2022/01/05 10:07:37;;;;;;;2.37;2.00;;;3.60;99.90;;;;;;5023661;28;20448;-77
2022/01/05 10:10:03;;;;;;;3.77;2.30;;;3.60;99.90;;;;;;5030917;28;20021;-76
2022/01/05 10:12:28;;;;;;;3.23;2.30;;;3.70;99.90;;;;;;5034828;28;20057;-77
2022/01/05 10:14:54;;;;;;;2.87;2.47;;;3.60;99.90;;;;;;5036508;28;20076;-77
2022/01/05 10:17:25;;;;;;;3.30;2.33;;;3.50;99.90;;;;;;5025982;28;20017;-79
2022/01/05 10:20:06;;;;;;;2.87;2.53;;;3.50;99.90;;;;;;5030676;28;20104;-79
2022/01/05 10:22:45;;;;;;;4.37;2.63;;;3.60;99.90;;;;;;5033401;28;20382;-79
2022/01/05 10:25:23;;;;;;;4.37;2.27;;;3.60;99.90;;;;;;5031545;28;20124;-79
2022/01/05 10:27:59;;;;;;;4.00;2.60;;;3.50;99.90;;;;;;5019941;28;20026;-79
2022/01/05 10:30:46;;;;;;;6.03;2.70;;;3.60;99.90;;;;;;5026570;28;20030;-79
2022/01/05 10:33:12;;;;;;;3.50;2.57;;;3.50;99.90;;;;;;5021326;28;20132;-80
2022/01/05 10:35:38;;;;;;;3.23;2.40;;;3.40;99.90;;;;;;5031728;28;20097;-76
2022/01/05 10:38:08;;;;;;;3.87;2.30;;;3.40;99.90;;;;;;5036217;28;20025;-76
2022/01/05 10:40:36;;;;;;;2.80;2.10;;;3.40;99.90;;;;;;5025411;28;20369;-77
2022/01/05 10:43:10;;;;;;;3.37;2.47;;;3.40;99.90;;;;;;5020892;28;20018;-76
2022/01/05 10:45:40;;;;;;;3.63;1.93;;;3.40;99.90;;;;;;5016181;28;20018;-76
2022/01/05 10:48:09;;;;;;;3.37;2.10;;;3.50;99.90;;;;;;5030330;28;20018;-76
2022/01/05 10:50:35;;;;;;;3.20;2.07;;;3.50;99.90;;;;;;5033067;28;20120;-81
2022/01/05 10:53:02;;;;;;;4.23;2.10;;;3.50;99.90;;;;;;5033845;28;20112;-79
2022/01/05 10:55:30;;;;;;;3.10;1.80;;;3.50;99.90;;;;;;5031347;28;20496;-79
2022/01/05 10:58:00;;;;;;;3.03;1.87;;;3.50;99.90;;;;;;5031849;28;20113;-79
2022/01/05 11:00:54;;;;;;;4.33;1.73;;;3.50;99.90;;;;;;5027229;28;20037;-79
2022/01/05 11:03:25;;;;;;;3.30;1.70;;;3.60;99.90;;;;;;5027792;28;20032;-79
2022/01/05 11:06:08;;;;;;;3.70;1.80;;;3.60;99.90;;;;;;5029587;28;20083;-79
2022/01/05 11:08:47;;;;;;;2.00;1.67;;;3.60;99.90;;;;;;5034314;28;20018;-79
2022/01/05 11:11:49;;;;;;;4.53;1.70;;;3.70;99.90;;;;;;5035381;28;20029;-79
2022/01/05 11:14:40;;;;;;;6.40;1.83;;;3.60;99.90;;;;;;4972303;28;20138;-77
2022/01/05 11:17:06;;;;;;;2.10;1.60;;;3.50;99.90;;;;;;5014420;28;20449;-75
2022/01/05 11:19:36;;;;;;;2.70;1.70;;;3.60;99.90;;;;;;5020097;28;20032;-80
2022/01/05 11:22:11;;;;;;;4.23;1.47;;;3.40;99.90;;;;;;5029874;28;20116;-80
2022/01/05 11:24:39;;;;;;;2.63;1.40;;;3.30;99.90;;;;;;5030992;28;20053;-74
2022/01/05 11:27:08;;;;;;;3.30;1.50;;;3.30;99.90;;;;;;5034800;28;20029;-74
2022/01/05 11:29:33;;;;;;;5.43;1.50;;;3.20;99.90;;;;;;5034946;28;20029;-74
2022/01/05 11:32:01;;;;;;;5.73;1.70;;;3.10;99.90;;;;;;5034746;28;20033;-74
2022/01/05 11:34:28;;;;;;;4.00;1.83;;;2.90;99.90;;;;;;5035676;28;20025;-78
2022/01/05 11:36:55;;;;;;;3.53;1.93;;;3.00;99.90;;;;;;5038731;28;20025;-78
2022/01/05 11:39:20;;;;;;;4.17;1.50;;;3.10;99.90;;;;;;5035408;28;20058;-80
2022/01/05 11:41:48;;;;;;;4.87;1.50;;;3.10;99.90;;;;;;5027100;28;20057;-80
2022/01/05 11:44:16;;;;;;;4.03;1.63;;;3.10;99.90;;;;;;5018415;28;20056;-80
2022/01/05 11:46:45;;;;;;;2.30;1.50;;;3.10;99.90;;;;;;5016849;28;20032;-80
2022/01/05 11:49:16;;;;;;;3.80;1.50;;;3.10;99.90;;;;;;5026909;28;20286;-80
2022/01/05 11:51:42;;;;;;;4.60;1.50;;;3.00;99.90;;;;;;5023955;28;20112;-81
2022/01/05 11:54:32;;;;;;;4.90;1.83;;;3.00;99.90;;;;;;5020348;28;20108;-81
2022/01/05 11:57:14;;;;;;;2.43;1.30;;;3.20;99.90;;;;;;5015612;28;20009;-81
2022/01/05 11:59:41;;;;;;;3.00;1.57;;;3.20;99.90;;;;;;5011367;28;20022;-81
2022/01/05 12:02:14;;;;;;;2.23;1.77;;;3.20;99.90;;;;;;5016590;28;20026;-80
2022/01/05 12:04:56;;;;;;;3.93;1.60;;;3.20;99.90;;;;;;5014006;28;20394;-80
2022/01/05 12:07:43;;;;;;;6.57;1.73;;;3.20;99.90;;;;;;5018720;28;20423;-80
2022/01/05 12:10:23;;;;;;;5.13;2.07;;;3.20;99.90;;;;;;5011260;28;20041;-80
2022/01/05 12:13:04;;;;;;;4.23;2.00;;;3.10;99.90;;;;;;5010786;28;20061;-79
2022/01/05 12:15:54;;;;;;;3.40;1.50;;;3.20;99.90;;;;;;5011219;28;20578;-80
2022/01/05 12:18:25;;;;;;;4.17;2.13;;;3.10;99.90;;;;;;5023490;28;20032;-80
2022/01/05 12:20:52;;;;;;;3.50;1.70;;;3.10;99.90;;;;;;5013966;28;20433;-75
2022/01/05 12:23:24;;;;;;;6.30;2.00;;;3.20;99.90;;;;;;5014227;28;20046;-75
2022/01/05 12:26:02;;;;;;;3.83;1.90;;;3.20;99.90;;;;;;5030064;28;20080;-74
2022/01/05 12:28:30;;;;;;;5.33;1.80;;;3.20;99.90;;;;;;5011814;28;20105;-76
2022/01/05 12:30:56;;;;;;;3.10;1.60;;;3.10;99.90;;;;;;5014496;28;20026;-76
2022/01/05 12:33:22;;;;;;;5.37;1.80;;;3.20;99.90;;;;;;5014339;28;20108;-76
2022/01/05 12:35:51;;;;;;;4.67;1.63;;;3.20;99.90;;;;;;5013726;28;20105;-76
2022/01/05 12:38:47;;;;;;;5.07;1.93;;;3.10;99.90;;;;;;5014300;28;20104;-76
2022/01/05 12:41:23;;;;;;;4.40;1.87;;;3.10;99.90;;;;;;5014325;28;20426;-76
2022/01/05 12:43:50;;;;;;;3.60;1.63;;;3.00;99.90;;;;;;5013999;28;20038;-76
2022/01/05 12:46:32;;;;;;;4.40;2.03;;;3.00;99.90;;;;;;5014012;28;20057;-76
2022/01/05 12:48:59;;;;;;;4.77;2.10;;;2.90;99.90;;;;;;5014215;28;20034;-76
2022/01/05 12:51:44;;;;;;;4.70;1.83;;;2.90;99.90;;;;;;5012638;28;20037;-76
2022/01/05 12:54:18;;;;;;;4.50;1.92;;;2.90;99.90;;;;;;5013932;28;20459;-78
2022/01/05 12:57:01;;;;;;;4.30;2.13;;;2.90;99.90;;;;;;5014319;28;20100;-78
2022/01/05 12:59:39;;;;;;;5.03;2.00;;;2.90;99.90;;;;;;5014136;28;20088;-78
2022/01/05 13:02:10;;;;;;;5.47;2.60;;;2.80;99.90;;;;;;5011482;28;20025;-80
2022/01/05 13:04:38;;;;;;;7.17;1.63;;;2.90;99.90;;;;;;5010478;28;20021;-80